Terminal Aerodrome Forecast
Issued by NWS

Home | Current Version | Previous Version | Text Only | Print | Product List | Glossary Off
Versions: 1 2 3 4 5 6 7 8 9 10 11 12 13 14 15 16 17

635
FTUS44 KTSA 290520
TAFFYV
TAF
KFYV 290520Z 2906/3006 00000KT P6SM SCT250
     FM290800 00000KT 4SM BR BKN250
     FM291500 22004KT P6SM SCT040 BKN250 PROB30 2915/2921 5SM -TSRA
      BKN040CB
     FM292100 VRB04KT P6SM SCT050 BKN250 PROB30 2921/3002 5SM -TSRA
      BKN050CB=

USA.gov is the U.S. government's official web portal to all federal, state and local government web resources and services.